createdAt,value
2022-08-30T00:00:16.032Z,999.90
2022-08-30T00:02:44.130Z,999.90
2022-08-30T00:05:12.067Z,999.90
2022-08-30T00:07:39.675Z,999.90
2022-08-30T00:10:08.286Z,999.90
2022-08-30T00:12:37.223Z,999.90
2022-08-30T00:15:07.061Z,999.90
2022-08-30T00:17:36.908Z,999.90
2022-08-30T00:20:05.507Z,999.90
2022-08-30T00:22:33.707Z,286.63
2022-08-30T00:25:01.610Z,999.90
2022-08-30T00:27:29.251Z,185.43
2022-08-30T00:29:58.627Z,167.47
2022-08-30T00:32:26.251Z,185.53
2022-08-30T00:34:54.869Z,173.20
2022-08-30T00:37:23.303Z,180.47
2022-08-30T00:39:51.348Z,171.77
2022-08-30T00:42:20.232Z,179.73
2022-08-30T00:44:48.347Z,185.03
2022-08-30T00:47:18.358Z,182.03
2022-08-30T00:49:48.150Z,182.97
2022-08-30T00:52:16.586Z,180.03
2022-08-30T00:54:45.703Z,181.37
2022-08-30T00:57:14.960Z,179.73
2022-08-30T00:59:44.435Z,74.07
2022-08-30T01:02:13.124Z,181.00
2022-08-30T01:04:44.447Z,184.20
2022-08-30T01:07:12.227Z,171.80
2022-08-30T01:09:40.167Z,174.47
2022-08-30T01:12:08.913Z,181.97
2022-08-30T01:14:36.551Z,183.13
2022-08-30T01:17:06.721Z,174.87
2022-08-30T01:19:40.090Z,178.83
2022-08-30T01:22:17.869Z,166.13
2022-08-30T01:24:47.642Z,188.23
2022-08-30T01:27:15.570Z,184.03
2022-08-30T01:29:44.963Z,179.63
2022-08-30T01:32:21.049Z,182.43
2022-08-30T01:34:48.984Z,182.77
2022-08-30T01:37:17.746Z,179.53
2022-08-30T01:39:48.026Z,185.17
2022-08-30T01:42:17.292Z,186.93
2022-08-30T01:44:44.984Z,180.97
2022-08-30T01:47:12.635Z,180.53
2022-08-30T01:49:41.653Z,184.93
2022-08-30T01:52:09.356Z,183.80
2022-08-30T01:54:40.134Z,184.73
2022-08-30T01:57:11.229Z,178.93
2022-08-30T01:59:40.397Z,177.27
2022-08-30T02:02:08.362Z,181.07
2022-08-30T02:04:36.695Z,181.87
2022-08-30T02:07:04.669Z,179.90
2022-08-30T02:09:32.272Z,179.97
2022-08-30T02:11:59.879Z,181.50
2022-08-30T02:14:28.917Z,179.73
2022-08-30T02:16:56.568Z,179.57
2022-08-30T02:19:24.261Z,148.47
2022-08-30T02:21:51.932Z,166.30
2022-08-30T02:24:19.528Z,182.30
2022-08-30T02:26:47.177Z,179.40
2022-08-30T02:29:14.777Z,177.20
2022-08-30T02:31:43.815Z,179.33
2022-08-30T02:34:11.471Z,185.90
2022-08-30T02:36:40.697Z,67.37
2022-08-30T02:39:08.991Z,178.67
2022-08-30T02:41:38.180Z,188.60
2022-08-30T02:44:05.878Z,184.30
2022-08-30T02:46:34.537Z,181.13
2022-08-30T02:49:29.999Z,186.30
2022-08-30T02:51:51.798Z,184.97
2022-08-30T02:54:20.568Z,999.90
2022-08-30T02:56:48.526Z,999.90
2022-08-30T02:59:16.308Z,999.90
2022-08-30T03:01:43.967Z,777.90
2022-08-30T03:04:13.109Z,873.00
2022-08-30T03:06:40.686Z,999.90
2022-08-30T03:09:08.703Z,593.33
2022-08-30T03:11:37.035Z,999.90
2022-08-30T03:14:05.315Z,999.90
2022-08-30T03:16:32.978Z,800.40
2022-08-30T03:19:00.627Z,888.23
2022-08-30T03:21:29.593Z,999.90
2022-08-30T03:23:57.194Z,999.90
2022-08-30T03:26:24.787Z,999.90
2022-08-30T03:28:52.376Z,612.93
2022-08-30T03:31:20.078Z,386.87
2022-08-30T03:33:47.828Z,374.73
2022-08-30T03:36:15.600Z,437.33
2022-08-30T03:38:44.510Z,389.30
2022-08-30T03:41:12.307Z,143.83
2022-08-30T03:43:40.716Z,445.60
2022-08-30T03:46:09.332Z,369.40
2022-08-30T03:48:36.918Z,373.87
2022-08-30T03:51:06.123Z,202.80
2022-08-30T03:53:34.010Z,405.40
2022-08-30T03:56:03.383Z,385.17
2022-08-30T03:58:30.965Z,374.10
2022-08-30T04:00:58.635Z,445.47
2022-08-30T04:03:26.492Z,421.03
2022-08-30T04:05:54.161Z,365.37
2022-08-30T04:08:21.971Z,732.73
2022-08-30T04:10:49.880Z,770.87
2022-08-30T04:13:18.821Z,787.00
2022-08-30T04:15:46.689Z,867.00
2022-08-30T04:18:14.278Z,694.57
2022-08-30T04:20:41.880Z,999.90
2022-08-30T04:23:09.543Z,804.43
2022-08-30T04:25:38.150Z,892.97
2022-08-30T04:28:06.663Z,842.43
2022-08-30T04:30:35.764Z,850.77
2022-08-30T04:33:03.337Z,999.90
2022-08-30T04:35:31.978Z,997.90
2022-08-30T04:37:59.794Z,999.90
2022-08-30T04:40:27.873Z,999.90
2022-08-30T04:42:56.205Z,999.90
2022-08-30T04:45:26.382Z,999.90
2022-08-30T04:47:56.519Z,999.90
2022-08-30T04:50:25.267Z,999.90
2022-08-30T04:52:52.881Z,999.90
2022-08-30T04:55:20.942Z,999.90
2022-08-30T04:57:48.838Z,999.90
2022-08-30T05:00:17.070Z,999.90
2022-08-30T05:02:44.735Z,999.90
2022-08-30T05:05:31.519Z,999.90
2022-08-30T05:07:59.422Z,999.90
2022-08-30T05:10:27.575Z,999.90
2022-08-30T05:12:55.787Z,999.90
2022-08-30T05:15:23.814Z,999.90
2022-08-30T05:17:51.542Z,999.90
2022-08-30T05:20:20.464Z,999.90
2022-08-30T05:22:53.524Z,999.90
2022-08-30T05:25:23.221Z,999.90
2022-08-30T05:27:50.926Z,999.90
2022-08-30T05:30:19.167Z,999.90
2022-08-30T05:32:46.907Z,999.90
2022-08-30T05:35:15.648Z,999.90
2022-08-30T05:37:45.763Z,999.90
2022-08-30T05:40:17.415Z,999.90
2022-08-30T05:42:45.430Z,999.90
2022-08-30T05:45:13.944Z,999.90
2022-08-30T05:47:42.126Z,999.90
2022-08-30T05:50:10.520Z,925.87
2022-08-30T05:52:38.272Z,972.27
2022-08-30T05:55:08.628Z,999.90
2022-08-30T05:57:37.194Z,999.90
2022-08-30T06:00:08.704Z,999.90
2022-08-30T06:02:36.281Z,999.90
2022-08-30T06:05:05.136Z,999.90
2022-08-30T06:07:33.349Z,999.90
2022-08-30T06:10:01.250Z,999.90
2022-08-30T06:12:30.227Z,999.90
2022-08-30T06:14:57.791Z,999.90
2022-08-30T06:17:25.407Z,999.90
2022-08-30T06:19:53.397Z,999.90
2022-08-30T06:22:21.001Z,999.90
2022-08-30T06:25:03.445Z,999.90
2022-08-30T06:27:32.404Z,999.90
2022-08-30T06:30:00.006Z,999.90
2022-08-30T06:32:27.723Z,999.90
2022-08-30T06:34:55.322Z,429.60
2022-08-30T06:37:29.857Z,999.90
2022-08-30T06:39:58.343Z,999.90
2022-08-30T06:42:31.588Z,999.90
2022-08-30T06:45:00.874Z,999.90
2022-08-30T06:47:28.996Z,999.90
2022-08-30T06:49:56.795Z,999.90
2022-08-30T06:52:24.806Z,999.90
2022-08-30T06:54:53.606Z,999.90
2022-08-30T06:57:21.156Z,999.90
2022-08-30T06:59:48.771Z,999.90
2022-08-30T07:02:17.768Z,999.90
2022-08-30T07:04:45.387Z,999.90
2022-08-30T07:07:12.919Z,999.90
2022-08-30T07:09:43.204Z,999.90
2022-08-30T07:12:11.865Z,999.90
2022-08-30T07:14:39.695Z,999.90
2022-08-30T07:17:32.486Z,999.90
2022-08-30T07:20:03.013Z,999.90
2022-08-30T07:22:30.983Z,999.90
2022-08-30T07:24:58.579Z,999.90
2022-08-30T07:27:26.192Z,999.90
2022-08-30T07:29:53.801Z,999.90
2022-08-30T07:32:21.359Z,294.43
2022-08-30T07:34:48.927Z,999.90
2022-08-30T07:37:20.771Z,999.90
2022-08-30T07:39:48.387Z,999.90
2022-08-30T07:42:16.065Z,999.90
2022-08-30T07:44:43.799Z,999.90
2022-08-30T07:47:11.429Z,999.90
2022-08-30T07:49:39.038Z,999.90
2022-08-30T07:52:06.691Z,999.90
2022-08-30T07:54:35.666Z,999.90
2022-08-30T07:57:03.241Z,999.90
2022-08-30T07:59:33.058Z,999.90
2022-08-30T08:02:03.647Z,999.90
2022-08-30T08:04:31.538Z,999.90
2022-08-30T08:06:59.466Z,999.90
2022-08-30T08:09:27.215Z,999.90
2022-08-30T08:11:56.151Z,999.90
2022-08-30T08:14:24.167Z,999.90
2022-08-30T08:16:51.750Z,999.90
2022-08-30T08:19:19.630Z,999.90
2022-08-30T08:21:48.641Z,999.90
2022-08-30T08:24:17.971Z,999.90
2022-08-30T08:26:45.650Z,999.90
2022-08-30T08:29:14.680Z,999.90
2022-08-30T08:31:42.953Z,999.90
2022-08-30T08:34:11.627Z,999.90
2022-08-30T08:36:39.417Z,999.90
2022-08-30T08:39:08.600Z,999.90
2022-08-30T08:41:43.228Z,999.90
2022-08-30T08:44:19.245Z,999.90
2022-08-30T08:46:52.323Z,999.90
2022-08-30T08:49:20.043Z,999.90
2022-08-30T08:52:05.380Z,999.90
2022-08-30T08:54:38.112Z,999.90
2022-08-30T08:57:05.757Z,999.90
2022-08-30T08:59:35.073Z,999.90
2022-08-30T09:02:17.294Z,999.90
2022-08-30T09:04:45.304Z,999.90
2022-08-30T09:07:17.410Z,999.90
2022-08-30T09:09:45.226Z,999.90
2022-08-30T09:12:13.242Z,999.90
2022-08-30T09:14:46.525Z,999.90
2022-08-30T09:17:15.608Z,999.90
2022-08-30T09:19:45.247Z,999.90
2022-08-30T09:22:18.372Z,999.90
2022-08-30T09:24:48.299Z,999.07
2022-08-30T09:27:24.044Z,999.90
2022-08-30T09:30:02.782Z,999.90
2022-08-30T09:32:36.268Z,999.90
2022-08-30T09:35:06.260Z,999.90
2022-08-30T09:37:38.648Z,988.80
2022-08-30T09:40:13.080Z,969.47
2022-08-30T09:42:40.760Z,950.60
2022-08-30T09:45:21.185Z,999.90
2022-08-30T09:47:48.770Z,999.90
2022-08-30T09:50:19.770Z,892.10
2022-08-30T09:53:01.115Z,999.90
2022-08-30T09:55:50.462Z,999.90
2022-08-30T09:58:29.782Z,999.90
2022-08-30T10:01:02.848Z,999.90
2022-08-30T10:03:40.221Z,974.10
2022-08-30T10:06:14.039Z,993.60
2022-08-30T10:08:53.128Z,777.77
2022-08-30T10:11:26.887Z,986.03
2022-08-30T10:14:18.666Z,999.90
2022-08-30T10:16:54.483Z,941.97
2022-08-30T10:19:38.491Z,882.37
2022-08-30T10:22:09.822Z,999.90
2022-08-30T10:24:41.304Z,913.87
2022-08-30T10:27:16.063Z,849.50
2022-08-30T10:29:47.694Z,999.90
2022-08-30T10:32:21.797Z,999.90
2022-08-30T10:34:52.680Z,970.53
2022-08-30T10:37:22.867Z,961.50
2022-08-30T10:39:52.376Z,955.60
2022-08-30T10:42:26.560Z,999.90
2022-08-30T10:44:56.924Z,999.90
2022-08-30T10:47:31.533Z,999.90
2022-08-30T10:50:07.200Z,973.60
2022-08-30T10:52:39.774Z,950.67
2022-08-30T10:55:11.450Z,999.90
2022-08-30T10:57:42.887Z,999.90
2022-08-30T11:00:13.853Z,999.90
2022-08-30T11:03:27.149Z,988.80
2022-08-30T11:06:04.493Z,956.73
2022-08-30T11:08:45.592Z,999.90
2022-08-30T11:11:20.656Z,799.93
2022-08-30T11:13:49.685Z,999.90
2022-08-30T11:16:19.103Z,999.90
2022-08-30T11:18:51.205Z,697.10
2022-08-30T11:21:27.652Z,969.77
2022-08-30T11:24:01.235Z,903.80
2022-08-30T11:26:58.226Z,927.50
2022-08-30T11:29:33.454Z,940.43
2022-08-30T11:32:25.009Z,867.43
2022-08-30T11:34:58.191Z,865.67
2022-08-30T11:37:40.906Z,972.13
2022-08-30T11:40:14.238Z,761.27
2022-08-30T11:42:46.518Z,983.00
2022-08-30T11:45:44.369Z,875.03
2022-08-30T11:48:40.316Z,999.90
2022-08-30T11:52:28.094Z,960.47
2022-08-30T11:55:10.140Z,897.07
2022-08-30T11:57:42.897Z,999.90
2022-08-30T12:00:13.736Z,859.37
2022-08-30T12:02:48.441Z,953.93
2022-08-30T12:05:51.798Z,978.37
2022-08-30T12:08:57.964Z,999.90
2022-08-30T12:11:57.644Z,960.97
2022-08-30T12:14:48.868Z,710.53
2022-08-30T12:17:40.329Z,999.90
2022-08-30T12:20:17.617Z,999.90
2022-08-30T12:22:45.547Z,642.07
2022-08-30T12:25:21.499Z,583.90
2022-08-30T12:27:49.536Z,672.47
2022-08-30T12:30:26.504Z,884.63
2022-08-30T12:32:54.683Z,794.43
2022-08-30T12:35:25.556Z,682.20
2022-08-30T12:37:59.194Z,594.20
2022-08-30T12:40:27.760Z,610.80
2022-08-30T12:42:57.380Z,381.03
2022-08-30T12:45:29.347Z,660.93
2022-08-30T12:47:58.964Z,577.60
2022-08-30T12:50:29.663Z,159.77
2022-08-30T12:52:59.818Z,370.00
2022-08-30T12:55:30.095Z,375.00
2022-08-30T12:58:01.366Z,166.57
2022-08-30T13:00:32.133Z,306.63
2022-08-30T13:03:01.664Z,999.90
2022-08-30T13:05:37.387Z,999.90
2022-08-30T13:08:11.563Z,999.90
2022-08-30T13:10:54.296Z,633.63
2022-08-30T13:13:31.497Z,999.90
2022-08-30T13:16:08.551Z,626.70
2022-08-30T13:18:36.320Z,999.90
2022-08-30T13:21:26.697Z,577.73
2022-08-30T13:23:58.383Z,999.90
2022-08-30T13:26:27.599Z,577.47
2022-08-30T13:28:57.737Z,630.67
2022-08-30T13:31:29.101Z,627.13
2022-08-30T13:33:57.952Z,542.97
2022-08-30T13:36:28.778Z,568.97
2022-08-30T13:38:56.659Z,378.50
2022-08-30T13:41:25.995Z,999.90
2022-08-30T13:44:14.259Z,619.50
2022-08-30T13:46:53.466Z,170.57
2022-08-30T13:52:21.087Z,546.30
2022-08-30T13:54:50.308Z,614.73
2022-08-30T13:57:53.440Z,242.63
2022-08-30T14:00:12.232Z,586.47
2022-08-30T14:02:46.309Z,176.27
2022-08-30T14:05:31.047Z,522.80
2022-08-30T14:08:03.510Z,309.40
2022-08-30T14:10:32.559Z,391.73
2022-08-30T14:13:08.551Z,318.20
2022-08-30T14:15:38.707Z,999.90
2022-08-30T14:18:08.786Z,787.53
2022-08-30T14:20:38.774Z,408.87
2022-08-30T14:23:10.517Z,999.90
2022-08-30T14:25:40.219Z,999.90
2022-08-30T14:28:09.633Z,999.90
2022-08-30T14:30:38.757Z,667.73
2022-08-30T14:33:08.418Z,688.60
2022-08-30T14:35:36.588Z,379.63
2022-08-30T14:38:04.455Z,414.17
2022-08-30T14:40:33.912Z,999.90
2022-08-30T14:43:02.375Z,452.90
2022-08-30T14:45:29.939Z,339.37
2022-08-30T14:47:57.595Z,716.53
2022-08-30T14:50:27.955Z,453.80
2022-08-30T14:52:56.756Z,207.13
2022-08-30T14:55:24.379Z,625.70
2022-08-30T14:57:52.144Z,182.90
2022-08-30T15:00:20.282Z,357.63
2022-08-30T15:02:47.883Z,684.03
2022-08-30T15:05:16.103Z,502.07
2022-08-30T15:07:45.554Z,999.90
2022-08-30T15:10:14.739Z,682.60
2022-08-30T15:12:42.359Z,392.63
2022-08-30T15:15:11.447Z,338.53
2022-08-30T15:17:39.021Z,999.90
2022-08-30T15:20:10.363Z,670.03
2022-08-30T15:22:38.335Z,321.97
2022-08-30T15:25:08.292Z,429.07
2022-08-30T15:27:37.121Z,370.97
2022-08-30T15:30:05.675Z,238.17
2022-08-30T15:32:33.896Z,999.90
2022-08-30T15:35:01.651Z,225.67
2022-08-30T15:37:30.902Z,686.40
2022-08-30T15:39:58.951Z,999.90
2022-08-30T15:42:28.288Z,364.67
2022-08-30T15:44:56.129Z,405.37
2022-08-30T15:47:24.618Z,258.53
2022-08-30T15:49:55.979Z,675.67
2022-08-30T15:52:24.003Z,340.47
2022-08-30T15:54:51.618Z,264.33
2022-08-30T15:57:19.639Z,579.60
2022-08-30T15:59:48.582Z,258.87
2022-08-30T16:02:16.797Z,261.17
2022-08-30T16:04:44.582Z,999.90
2022-08-30T16:07:14.552Z,336.90
2022-08-30T16:09:42.147Z,353.80
2022-08-30T16:12:10.215Z,215.27
2022-08-30T16:14:37.901Z,374.67
2022-08-30T16:17:06.887Z,295.60
2022-08-30T16:19:34.668Z,375.47
2022-08-30T16:22:02.779Z,579.47
2022-08-30T16:24:30.560Z,185.23
2022-08-30T16:26:58.431Z,197.77
2022-08-30T16:29:26.102Z,565.10
2022-08-30T16:31:53.730Z,231.67
2022-08-30T16:34:22.863Z,243.23
2022-08-30T16:36:50.840Z,226.63
2022-08-30T16:39:18.963Z,277.33
2022-08-30T16:41:48.258Z,226.00
2022-08-30T16:44:17.769Z,495.67
2022-08-30T16:46:53.245Z,249.07
2022-08-30T16:49:23.380Z,187.57
2022-08-30T16:51:53.642Z,498.83
2022-08-30T16:54:22.155Z,556.17
2022-08-30T16:56:49.878Z,489.57
2022-08-30T16:59:17.750Z,419.60
2022-08-30T17:01:48.034Z,347.37
2022-08-30T17:04:19.288Z,151.70
2022-08-30T17:06:50.053Z,407.67
2022-08-30T17:09:18.451Z,198.10
2022-08-30T17:11:46.953Z,111.57
2022-08-30T17:14:14.729Z,414.33
2022-08-30T17:16:42.351Z,189.00
2022-08-30T17:19:12.911Z,331.93
2022-08-30T17:21:40.527Z,218.37
2022-08-30T17:24:09.575Z,149.97
2022-08-30T17:26:38.049Z,178.17
2022-08-30T17:29:06.427Z,321.60
2022-08-30T17:31:35.527Z,210.87
2022-08-30T17:34:05.698Z,124.20
2022-08-30T17:36:35.312Z,143.47
2022-08-30T17:39:11.075Z,320.13
2022-08-30T17:41:45.212Z,168.13
2022-08-30T17:44:18.649Z,115.37
2022-08-30T17:46:46.349Z,999.90
2022-08-30T17:49:14.031Z,201.23
2022-08-30T17:51:43.434Z,198.20
2022-08-30T17:54:11.896Z,152.57
2022-08-30T17:56:41.295Z,183.87
2022-08-30T17:59:09.282Z,169.87
2022-08-30T18:01:37.267Z,185.80
2022-08-30T18:04:06.269Z,497.03
2022-08-30T18:06:34.195Z,180.77
2022-08-30T18:09:02.132Z,999.90
2022-08-30T18:11:30.171Z,142.53
2022-08-30T18:13:59.483Z,312.23
2022-08-30T18:16:27.217Z,155.93
2022-08-30T18:18:56.936Z,216.90
2022-08-30T18:21:25.355Z,244.80
2022-08-30T18:23:53.106Z,313.77
2022-08-30T18:26:22.203Z,255.43
2022-08-30T18:28:51.913Z,999.90
2022-08-30T18:31:20.948Z,254.33
2022-08-30T18:33:48.948Z,167.07
2022-08-30T18:36:16.730Z,235.47
2022-08-30T18:38:45.309Z,163.30
2022-08-30T18:41:15.179Z,170.53
2022-08-30T18:43:43.171Z,268.20
2022-08-30T18:46:14.836Z,202.70
2022-08-30T18:48:44.602Z,242.40
2022-08-30T18:51:12.862Z,522.13
2022-08-30T18:53:40.694Z,227.87
2022-08-30T18:56:08.599Z,210.90
2022-08-30T18:58:38.927Z,999.90
2022-08-30T19:01:07.004Z,254.33
2022-08-30T19:03:34.699Z,241.17
2022-08-30T19:06:05.292Z,186.30
2022-08-30T19:08:36.015Z,273.57
2022-08-30T19:11:07.449Z,224.80
2022-08-30T19:13:35.539Z,280.50
2022-08-30T19:16:03.883Z,223.00
2022-08-30T19:18:32.708Z,163.97
2022-08-30T19:21:00.739Z,298.87
2022-08-30T19:23:34.234Z,999.90
2022-08-30T19:26:02.095Z,242.63
2022-08-30T19:28:30.447Z,117.00
2022-08-30T19:30:58.088Z,183.10
2022-08-30T19:33:25.710Z,250.90
2022-08-30T19:35:53.933Z,325.40
2022-08-30T19:38:21.703Z,290.07
2022-08-30T19:40:54.537Z,134.17
2022-08-30T19:43:22.647Z,287.70
2022-08-30T19:45:54.324Z,309.93
2022-08-30T19:48:22.456Z,220.67
2022-08-30T19:50:50.308Z,306.43
2022-08-30T19:53:18.155Z,264.13
2022-08-30T19:55:45.900Z,185.10
2022-08-30T19:58:15.640Z,196.17
2022-08-30T20:00:54.478Z,236.97
2022-08-30T20:03:28.639Z,999.90
2022-08-30T20:05:57.606Z,999.90
2022-08-30T20:08:25.286Z,182.43
2022-08-30T20:10:53.248Z,566.97
2022-08-30T20:13:23.987Z,999.90
2022-08-30T20:15:55.865Z,275.30
2022-08-30T20:18:25.895Z,250.13
2022-08-30T20:20:54.132Z,209.53
2022-08-30T20:23:23.843Z,231.90
2022-08-30T20:25:54.321Z,240.20
2022-08-30T20:28:24.589Z,221.50
2022-08-30T20:30:52.630Z,280.73
2022-08-30T20:33:21.089Z,191.80
2022-08-30T20:35:49.842Z,242.60
2022-08-30T20:38:21.115Z,999.90
2022-08-30T20:40:51.215Z,173.03
2022-08-30T20:43:19.314Z,255.87
2022-08-30T20:45:49.006Z,280.00
2022-08-30T20:48:17.368Z,214.77
2022-08-30T20:50:45.439Z,165.57
2022-08-30T20:53:13.243Z,205.73
2022-08-30T20:55:42.343Z,999.90
2022-08-30T20:58:09.923Z,228.30
2022-08-30T21:00:37.667Z,193.87
2022-08-30T21:03:25.606Z,300.70
2022-08-30T21:05:55.171Z,386.27
2022-08-30T21:08:22.855Z,716.60
2022-08-30T21:10:50.483Z,162.83
2022-08-30T21:13:18.268Z,555.43
2022-08-30T21:15:46.301Z,238.70
2022-08-30T21:18:15.478Z,256.73
2022-08-30T21:20:43.206Z,302.53
2022-08-30T21:23:11.224Z,587.17
2022-08-30T21:25:39.350Z,194.43
2022-08-30T21:28:07.370Z,719.10
2022-08-30T21:30:35.581Z,235.17
2022-08-30T21:33:03.516Z,243.17
2022-08-30T21:35:50.445Z,222.60
2022-08-30T21:38:18.984Z,328.57
2022-08-30T21:40:48.272Z,337.77
2022-08-30T21:43:16.134Z,245.80
2022-08-30T21:45:44.980Z,279.43
2022-08-30T21:48:14.221Z,331.13
2022-08-30T21:50:44.706Z,253.20
2022-08-30T21:53:15.070Z,367.40
2022-08-30T21:55:43.834Z,355.23
2022-08-30T21:58:11.886Z,312.60
2022-08-30T22:00:39.471Z,313.90
2022-08-30T22:03:07.164Z,391.87
2022-08-30T22:05:34.792Z,218.70
2022-08-30T22:08:04.310Z,999.90
2022-08-30T22:10:33.390Z,215.40
2022-08-30T22:13:01.236Z,999.90
2022-08-30T22:15:28.958Z,999.90
2022-08-30T22:17:57.118Z,999.90
2022-08-30T22:20:24.875Z,207.77
2022-08-30T22:22:55.144Z,764.80
2022-08-30T22:25:24.124Z,260.93
2022-08-30T22:27:52.002Z,298.73
2022-08-30T22:30:19.746Z,404.90
2022-08-30T22:32:47.598Z,999.90
2022-08-30T22:35:15.963Z,302.20
2022-08-30T22:37:47.579Z,411.57
2022-08-30T22:40:16.064Z,414.80
2022-08-30T22:42:48.229Z,725.53
2022-08-30T22:45:16.325Z,294.10
2022-08-30T22:47:43.920Z,999.90
2022-08-30T22:50:13.101Z,999.90
2022-08-30T22:52:41.012Z,276.33
2022-08-30T22:55:09.042Z,319.83
2022-08-30T22:57:37.159Z,323.03
2022-08-30T23:00:11.201Z,262.77
2022-08-30T23:02:38.966Z,464.00
2022-08-30T23:05:07.367Z,999.90
2022-08-30T23:07:35.157Z,265.00
2022-08-30T23:10:05.746Z,999.90
2022-08-30T23:12:36.747Z,349.60
2022-08-30T23:15:06.493Z,702.33
2022-08-30T23:17:39.637Z,348.53
2022-08-30T23:20:08.836Z,398.07
2022-08-30T23:22:36.559Z,357.23
2022-08-30T23:25:22.698Z,339.87
2022-08-30T23:28:10.894Z,254.83
2022-08-30T23:30:57.434Z,331.47
2022-08-30T23:33:42.678Z,350.93
2022-08-30T23:36:30.597Z,298.90
2022-08-30T23:39:16.386Z,389.93
2022-08-30T23:42:01.869Z,699.07
2022-08-30T23:44:47.074Z,338.00
2022-08-30T23:47:33.768Z,310.73
2022-08-30T23:50:19.022Z,294.30
2022-08-30T23:53:04.362Z,719.67
2022-08-30T23:55:49.887Z,693.00
2022-08-30T23:58:35.509Z,326.87
